sensor_id;sensor_type;location;lat;lon;timestamp;P1;durP1;ratioP1;P2;durP2;ratioP2
76423;SDS011;65257;52.104;4.268;2023-04-03T00:01:17;3.50;;;1.17;;
76423;SDS011;65257;52.104;4.268;2023-04-03T00:03:46;5.63;;;1.88;;
76423;SDS011;65257;52.104;4.268;2023-04-03T00:06:12;2.95;;;1.92;;
76423;SDS011;65257;52.104;4.268;2023-04-03T00:08:38;6.95;;;2.03;;
76423;SDS011;65257;52.104;4.268;2023-04-03T00:11:05;5.22;;;2.15;;
76423;SDS011;65257;52.104;4.268;2023-04-03T00:13:34;5.35;;;1.90;;
76423;SDS011;65257;52.104;4.268;2023-04-03T00:16:00;6.50;;;1.58;;
76423;SDS011;65257;52.104;4.268;2023-04-03T00:18:25;4.18;;;1.60;;
76423;SDS011;65257;52.104;4.268;2023-04-03T00:20:51;4.55;;;1.48;;
76423;SDS011;65257;52.104;4.268;2023-04-03T00:23:16;2.47;;;1.15;;
76423;SDS011;65257;52.104;4.268;2023-04-03T00:25:42;3.72;;;1.42;;
76423;SDS011;65257;52.104;4.268;2023-04-03T00:28:11;4.43;;;1.73;;
76423;SDS011;65257;52.104;4.268;2023-04-03T00:30:37;3.22;;;1.48;;
76423;SDS011;65257;52.104;4.268;2023-04-03T00:33:02;3.63;;;1.60;;
76423;SDS011;65257;52.104;4.268;2023-04-03T00:35:28;3.47;;;1.63;;
76423;SDS011;65257;52.104;4.268;2023-04-03T00:37:54;4.05;;;1.67;;
76423;SDS011;65257;52.104;4.268;2023-04-03T00:40:26;5.28;;;1.48;;
76423;SDS011;65257;52.104;4.268;2023-04-03T00:42:55;3.97;;;1.33;;
76423;SDS011;65257;52.104;4.268;2023-04-03T00:45:24;3.20;;;1.25;;
76423;SDS011;65257;52.104;4.268;2023-04-03T00:48:11;4.50;;;1.35;;
76423;SDS011;65257;52.104;4.268;2023-04-03T00:50:41;3.60;;;1.30;;
76423;SDS011;65257;52.104;4.268;2023-04-03T00:53:14;3.05;;;1.23;;
76423;SDS011;65257;52.104;4.268;2023-04-03T00:55:49;3.35;;;0.95;;
76423;SDS011;65257;52.104;4.268;2023-04-03T00:58:19;3.28;;;1.40;;
76423;SDS011;65257;52.104;4.268;2023-04-03T01:00:49;4.18;;;1.13;;
76423;SDS011;65257;52.104;4.268;2023-04-03T01:03:22;3.20;;;1.10;;
76423;SDS011;65257;52.104;4.268;2023-04-03T01:05:51;2.55;;;1.35;;
76423;SDS011;65257;52.104;4.268;2023-04-03T01:08:17;3.80;;;1.27;;
76423;SDS011;65257;52.104;4.268;2023-04-03T01:10:51;2.25;;;0.90;;
76423;SDS011;65257;52.104;4.268;2023-04-03T01:13:27;2.85;;;0.98;;
76423;SDS011;65257;52.104;4.268;2023-04-03T01:15:55;2.45;;;1.48;;
76423;SDS011;65257;52.104;4.268;2023-04-03T01:18:22;3.28;;;1.50;;
76423;SDS011;65257;52.104;4.268;2023-04-03T01:23:32;2.85;;;1.20;;
76423;SDS011;65257;52.104;4.268;2023-04-03T01:26:40;7.10;;;1.73;;
76423;SDS011;65257;52.104;4.268;2023-04-03T01:29:15;5.10;;;1.55;;
76423;SDS011;65257;52.104;4.268;2023-04-03T01:34:16;4.22;;;1.35;;
76423;SDS011;65257;52.104;4.268;2023-04-03T01:36:42;3.65;;;1.33;;
76423;SDS011;65257;52.104;4.268;2023-04-03T01:39:11;2.65;;;1.40;;
76423;SDS011;65257;52.104;4.268;2023-04-03T01:41:44;3.17;;;1.15;;
76423;SDS011;65257;52.104;4.268;2023-04-03T01:44:10;3.60;;;1.33;;
76423;SDS011;65257;52.104;4.268;2023-04-03T01:46:35;6.10;;;1.42;;
76423;SDS011;65257;52.104;4.268;2023-04-03T01:49:02;3.15;;;1.50;;
76423;SDS011;65257;52.104;4.268;2023-04-03T01:51:31;4.38;;;1.45;;
76423;SDS011;65257;52.104;4.268;2023-04-03T01:53:58;3.90;;;1.17;;
76423;SDS011;65257;52.104;4.268;2023-04-03T01:56:23;4.38;;;1.33;;
76423;SDS011;65257;52.104;4.268;2023-04-03T01:58:51;2.92;;;1.38;;
76423;SDS011;65257;52.104;4.268;2023-04-03T02:01:17;3.05;;;1.15;;
76423;SDS011;65257;52.104;4.268;2023-04-03T02:03:42;5.68;;;1.83;;
76423;SDS011;65257;52.104;4.268;2023-04-03T02:06:08;2.42;;;1.00;;
76423;SDS011;65257;52.104;4.268;2023-04-03T02:08:33;3.78;;;1.30;;
76423;SDS011;65257;52.104;4.268;2023-04-03T02:10:59;2.88;;;1.13;;
76423;SDS011;65257;52.104;4.268;2023-04-03T02:13:25;5.10;;;1.25;;
76423;SDS011;65257;52.104;4.268;2023-04-03T02:15:50;3.72;;;1.70;;
76423;SDS011;65257;52.104;4.268;2023-04-03T02:18:16;2.63;;;1.10;;
76423;SDS011;65257;52.104;4.268;2023-04-03T02:20:47;2.22;;;1.08;;
76423;SDS011;65257;52.104;4.268;2023-04-03T02:23:13;2.50;;;1.33;;
76423;SDS011;65257;52.104;4.268;2023-04-03T02:25:38;2.92;;;1.27;;
76423;SDS011;65257;52.104;4.268;2023-04-03T02:28:03;3.00;;;1.63;;
76423;SDS011;65257;52.104;4.268;2023-04-03T02:30:29;2.30;;;1.33;;
76423;SDS011;65257;52.104;4.268;2023-04-03T02:32:57;2.78;;;1.13;;
76423;SDS011;65257;52.104;4.268;2023-04-03T02:35:25;1.95;;;1.13;;
76423;SDS011;65257;52.104;4.268;2023-04-03T02:37:51;2.35;;;0.73;;
76423;SDS011;65257;52.104;4.268;2023-04-03T02:40:16;4.90;;;1.20;;
76423;SDS011;65257;52.104;4.268;2023-04-03T02:42:44;2.53;;;1.00;;
76423;SDS011;65257;52.104;4.268;2023-04-03T02:45:10;3.05;;;1.13;;
76423;SDS011;65257;52.104;4.268;2023-04-03T02:47:57;1.88;;;1.00;;
76423;SDS011;65257;52.104;4.268;2023-04-03T02:50:21;3.90;;;1.55;;
76423;SDS011;65257;52.104;4.268;2023-04-03T02:52:47;2.85;;;1.63;;
76423;SDS011;65257;52.104;4.268;2023-04-03T02:55:13;2.60;;;0.85;;
76423;SDS011;65257;52.104;4.268;2023-04-03T02:57:43;0.82;;;0.55;;
76423;SDS011;65257;52.104;4.268;2023-04-03T03:00:11;1.77;;;0.80;;
76423;SDS011;65257;52.104;4.268;2023-04-03T03:02:38;4.18;;;1.00;;
76423;SDS011;65257;52.104;4.268;2023-04-03T03:05:06;3.75;;;1.23;;
76423;SDS011;65257;52.104;4.268;2023-04-03T03:07:33;3.13;;;1.08;;
76423;SDS011;65257;52.104;4.268;2023-04-03T03:10:01;1.42;;;0.70;;
76423;SDS011;65257;52.104;4.268;2023-04-03T03:12:26;2.40;;;1.75;;
76423;SDS011;65257;52.104;4.268;2023-04-03T03:14:52;3.95;;;1.15;;
76423;SDS011;65257;52.104;4.268;2023-04-03T03:17:17;1.77;;;1.00;;
76423;SDS011;65257;52.104;4.268;2023-04-03T03:19:43;2.92;;;0.82;;
76423;SDS011;65257;52.104;4.268;2023-04-03T03:22:10;2.15;;;1.08;;
76423;SDS011;65257;52.104;4.268;2023-04-03T03:24:36;3.40;;;1.60;;
76423;SDS011;65257;52.104;4.268;2023-04-03T03:27:02;3.35;;;1.42;;
76423;SDS011;65257;52.104;4.268;2023-04-03T03:29:27;2.10;;;1.15;;
76423;SDS011;65257;52.104;4.268;2023-04-03T03:31:57;3.13;;;1.48;;
76423;SDS011;65257;52.104;4.268;2023-04-03T03:34:22;2.05;;;0.90;;
76423;SDS011;65257;52.104;4.268;2023-04-03T03:36:48;4.10;;;1.65;;
76423;SDS011;65257;52.104;4.268;2023-04-03T03:39:13;2.35;;;1.42;;
76423;SDS011;65257;52.104;4.268;2023-04-03T03:41:40;7.28;;;1.65;;
76423;SDS011;65257;52.104;4.268;2023-04-03T03:44:06;1.90;;;1.25;;
76423;SDS011;65257;52.104;4.268;2023-04-03T03:46:35;2.10;;;1.15;;
76423;SDS011;65257;52.104;4.268;2023-04-03T03:49:00;2.65;;;0.85;;
76423;SDS011;65257;52.104;4.268;2023-04-03T03:51:32;2.63;;;1.27;;
76423;SDS011;65257;52.104;4.268;2023-04-03T03:53:57;2.92;;;1.58;;
76423;SDS011;65257;52.104;4.268;2023-04-03T03:56:23;11.63;;;1.95;;
76423;SDS011;65257;52.104;4.268;2023-04-03T03:58:48;2.80;;;1.40;;
76423;SDS011;65257;52.104;4.268;2023-04-03T04:01:14;2.78;;;1.30;;
76423;SDS011;65257;52.104;4.268;2023-04-03T04:03:43;3.15;;;1.40;;
76423;SDS011;65257;52.104;4.268;2023-04-03T04:06:09;3.75;;;1.63;;
76423;SDS011;65257;52.104;4.268;2023-04-03T04:08:35;4.00;;;1.58;;
76423;SDS011;65257;52.104;4.268;2023-04-03T04:11:00;3.22;;;1.27;;
76423;SDS011;65257;52.104;4.268;2023-04-03T04:13:38;2.58;;;1.35;;
76423;SDS011;65257;52.104;4.268;2023-04-03T04:16:06;5.43;;;1.40;;
76423;SDS011;65257;52.104;4.268;2023-04-03T04:18:36;2.63;;;1.02;;
76423;SDS011;65257;52.104;4.268;2023-04-03T04:21:07;3.85;;;1.88;;
76423;SDS011;65257;52.104;4.268;2023-04-03T04:23:33;3.00;;;1.55;;
76423;SDS011;65257;52.104;4.268;2023-04-03T04:25:58;4.10;;;1.50;;
76423;SDS011;65257;52.104;4.268;2023-04-03T04:28:23;2.60;;;1.77;;
76423;SDS011;65257;52.104;4.268;2023-04-03T04:30:49;2.75;;;1.52;;
76423;SDS011;65257;52.104;4.268;2023-04-03T04:33:14;3.90;;;1.33;;
76423;SDS011;65257;52.104;4.268;2023-04-03T04:35:41;2.38;;;1.38;;
76423;SDS011;65257;52.104;4.268;2023-04-03T04:38:08;3.33;;;1.67;;
76423;SDS011;65257;52.104;4.268;2023-04-03T04:40:47;3.20;;;1.42;;
76423;SDS011;65257;52.104;4.268;2023-04-03T04:43:18;6.47;;;2.05;;
76423;SDS011;65257;52.104;4.268;2023-04-03T04:45:43;4.53;;;1.85;;
76423;SDS011;65257;52.104;4.268;2023-04-03T04:48:09;2.97;;;1.17;;
76423;SDS011;65257;52.104;4.268;2023-04-03T04:50:35;3.30;;;1.75;;
76423;SDS011;65257;52.104;4.268;2023-04-03T04:53:03;3.70;;;1.95;;
76423;SDS011;65257;52.104;4.268;2023-04-03T04:55:32;4.32;;;1.83;;
76423;SDS011;65257;52.104;4.268;2023-04-03T04:57:57;3.47;;;1.45;;
76423;SDS011;65257;52.104;4.268;2023-04-03T05:00:23;4.28;;;1.73;;
76423;SDS011;65257;52.104;4.268;2023-04-03T05:02:49;5.20;;;2.22;;
76423;SDS011;65257;52.104;4.268;2023-04-03T05:05:18;6.65;;;2.38;;
76423;SDS011;65257;52.104;4.268;2023-04-03T05:07:43;3.38;;;1.60;;
76423;SDS011;65257;52.104;4.268;2023-04-03T05:10:09;2.53;;;1.15;;
76423;SDS011;65257;52.104;4.268;2023-04-03T05:12:36;3.08;;;1.77;;
76423;SDS011;65257;52.104;4.268;2023-04-03T05:15:01;4.22;;;1.80;;
76423;SDS011;65257;52.104;4.268;2023-04-03T05:17:33;3.97;;;1.40;;
76423;SDS011;65257;52.104;4.268;2023-04-03T05:19:58;4.82;;;2.05;;
76423;SDS011;65257;52.104;4.268;2023-04-03T05:22:24;3.97;;;1.70;;
76423;SDS011;65257;52.104;4.268;2023-04-03T05:24:49;3.95;;;1.90;;
76423;SDS011;65257;52.104;4.268;2023-04-03T05:27:15;4.05;;;1.80;;
76423;SDS011;65257;52.104;4.268;2023-04-03T05:29:42;3.78;;;2.13;;
76423;SDS011;65257;52.104;4.268;2023-04-03T05:32:11;5.15;;;1.75;;
76423;SDS011;65257;52.104;4.268;2023-04-03T05:34:40;5.82;;;2.20;;
76423;SDS011;65257;52.104;4.268;2023-04-03T05:37:05;5.28;;;2.40;;
76423;SDS011;65257;52.104;4.268;2023-04-03T05:39:37;5.70;;;2.10;;
76423;SDS011;65257;52.104;4.268;2023-04-03T05:42:11;3.83;;;1.75;;
76423;SDS011;65257;52.104;4.268;2023-04-03T05:44:37;4.30;;;2.08;;
76423;SDS011;65257;52.104;4.268;2023-04-03T05:47:06;1.58;;;0.88;;
76423;SDS011;65257;52.104;4.268;2023-04-03T05:49:35;6.07;;;1.52;;
76423;SDS011;65257;52.104;4.268;2023-04-03T05:52:03;3.30;;;1.58;;
76423;SDS011;65257;52.104;4.268;2023-04-03T05:54:29;4.10;;;2.20;;
76423;SDS011;65257;52.104;4.268;2023-04-03T05:56:57;6.25;;;2.47;;
76423;SDS011;65257;52.104;4.268;2023-04-03T05:59:23;4.75;;;1.88;;
76423;SDS011;65257;52.104;4.268;2023-04-03T06:01:51;2.85;;;1.40;;
76423;SDS011;65257;52.104;4.268;2023-04-03T06:04:20;4.30;;;1.48;;
76423;SDS011;65257;52.104;4.268;2023-04-03T06:09:17;3.00;;;1.63;;
76423;SDS011;65257;52.104;4.268;2023-04-03T06:11:43;8.15;;;2.55;;
76423;SDS011;65257;52.104;4.268;2023-04-03T06:14:09;6.88;;;2.08;;
76423;SDS011;65257;52.104;4.268;2023-04-03T06:16:39;9.93;;;2.08;;
76423;SDS011;65257;52.104;4.268;2023-04-03T06:19:09;3.83;;;2.05;;
76423;SDS011;65257;52.104;4.268;2023-04-03T06:21:38;3.67;;;1.88;;
76423;SDS011;65257;52.104;4.268;2023-04-03T06:24:04;4.18;;;2.08;;
76423;SDS011;65257;52.104;4.268;2023-04-03T06:26:31;3.55;;;1.85;;
76423;SDS011;65257;52.104;4.268;2023-04-03T06:29:21;4.47;;;2.30;;
76423;SDS011;65257;52.104;4.268;2023-04-03T06:31:48;4.95;;;2.20;;
76423;SDS011;65257;52.104;4.268;2023-04-03T06:34:21;5.70;;;2.05;;
76423;SDS011;65257;52.104;4.268;2023-04-03T06:36:49;4.45;;;2.30;;
76423;SDS011;65257;52.104;4.268;2023-04-03T06:39:19;7.68;;;2.03;;
76423;SDS011;65257;52.104;4.268;2023-04-03T06:41:49;3.20;;;1.55;;
76423;SDS011;65257;52.104;4.268;2023-04-03T06:44:16;5.68;;;2.40;;
76423;SDS011;65257;52.104;4.268;2023-04-03T06:46:42;6.65;;;2.35;;
76423;SDS011;65257;52.104;4.268;2023-04-03T06:49:11;4.05;;;2.15;;
76423;SDS011;65257;52.104;4.268;2023-04-03T06:51:37;4.15;;;1.92;;
76423;SDS011;65257;52.104;4.268;2023-04-03T06:54:05;5.15;;;2.38;;
76423;SDS011;65257;52.104;4.268;2023-04-03T06:56:33;3.58;;;1.63;;
76423;SDS011;65257;52.104;4.268;2023-04-03T06:58:59;5.05;;;2.33;;
76423;SDS011;65257;52.104;4.268;2023-04-03T07:01:35;6.32;;;1.70;;
76423;SDS011;65257;52.104;4.268;2023-04-03T07:04:05;2.50;;;1.15;;
76423;SDS011;65257;52.104;4.268;2023-04-03T07:06:36;3.65;;;1.80;;
76423;SDS011;65257;52.104;4.268;2023-04-03T07:09:07;6.18;;;2.38;;
76423;SDS011;65257;52.104;4.268;2023-04-03T07:11:34;3.35;;;1.67;;
76423;SDS011;65257;52.104;4.268;2023-04-03T07:14:04;5.50;;;2.72;;
76423;SDS011;65257;52.104;4.268;2023-04-03T07:16:35;9.10;;;2.50;;
76423;SDS011;65257;52.104;4.268;2023-04-03T07:19:02;2.72;;;1.55;;
76423;SDS011;65257;52.104;4.268;2023-04-03T07:21:34;5.05;;;2.10;;
76423;SDS011;65257;52.104;4.268;2023-04-03T07:24:00;7.65;;;2.30;;
76423;SDS011;65257;52.104;4.268;2023-04-03T07:26:28;6.18;;;1.92;;
76423;SDS011;65257;52.104;4.268;2023-04-03T07:31:27;3.53;;;1.63;;
76423;SDS011;65257;52.104;4.268;2023-04-03T07:33:54;2.78;;;1.95;;
76423;SDS011;65257;52.104;4.268;2023-04-03T07:36:23;8.95;;;2.33;;
76423;SDS011;65257;52.104;4.268;2023-04-03T07:38:50;4.22;;;1.88;;
76423;SDS011;65257;52.104;4.268;2023-04-03T07:41:19;5.40;;;2.28;;
76423;SDS011;65257;52.104;4.268;2023-04-03T07:43:52;3.25;;;1.45;;
76423;SDS011;65257;52.104;4.268;2023-04-03T07:46:19;6.80;;;2.08;;
76423;SDS011;65257;52.104;4.268;2023-04-03T07:48:45;3.67;;;1.48;;
76423;SDS011;65257;52.104;4.268;2023-04-03T07:51:12;6.75;;;1.65;;
76423;SDS011;65257;52.104;4.268;2023-04-03T07:53:41;6.65;;;1.80;;
76423;SDS011;65257;52.104;4.268;2023-04-03T07:56:08;3.63;;;1.85;;
76423;SDS011;65257;52.104;4.268;2023-04-03T07:58:54;4.65;;;2.40;;
76423;SDS011;65257;52.104;4.268;2023-04-03T08:01:22;4.10;;;2.00;;
76423;SDS011;65257;52.104;4.268;2023-04-03T08:03:48;3.85;;;1.60;;
76423;SDS011;65257;52.104;4.268;2023-04-03T08:06:15;7.13;;;2.67;;
76423;SDS011;65257;52.104;4.268;2023-04-03T08:08:41;3.17;;;1.33;;
76423;SDS011;65257;52.104;4.268;2023-04-03T08:11:11;4.97;;;1.65;;
76423;SDS011;65257;52.104;4.268;2023-04-03T08:13:43;4.20;;;1.50;;
76423;SDS011;65257;52.104;4.268;2023-04-03T08:16:16;3.88;;;1.48;;
76423;SDS011;65257;52.104;4.268;2023-04-03T08:18:56;4.15;;;1.63;;
76423;SDS011;65257;52.104;4.268;2023-04-03T08:21:28;5.88;;;2.70;;
76423;SDS011;65257;52.104;4.268;2023-04-03T08:23:54;2.47;;;1.20;;
76423;SDS011;65257;52.104;4.268;2023-04-03T08:26:22;5.35;;;1.67;;
76423;SDS011;65257;52.104;4.268;2023-04-03T08:28:48;4.03;;;1.25;;
76423;SDS011;65257;52.104;4.268;2023-04-03T08:31:17;2.78;;;1.20;;
76423;SDS011;65257;52.104;4.268;2023-04-03T08:33:45;2.55;;;1.73;;
76423;SDS011;65257;52.104;4.268;2023-04-03T08:36:31;3.65;;;1.60;;
76423;SDS011;65257;52.104;4.268;2023-04-03T08:38:57;3.15;;;1.38;;
76423;SDS011;65257;52.104;4.268;2023-04-03T08:41:34;5.47;;;1.85;;
76423;SDS011;65257;52.104;4.268;2023-04-03T08:44:25;3.17;;;1.30;;
76423;SDS011;65257;52.104;4.268;2023-04-03T08:50:07;3.45;;;1.52;;
76423;SDS011;65257;52.104;4.268;2023-04-03T08:52:58;3.50;;;1.63;;
76423;SDS011;65257;52.104;4.268;2023-04-03T08:55:32;5.47;;;1.40;;
76423;SDS011;65257;52.104;4.268;2023-04-03T08:58:12;2.22;;;1.02;;
76423;SDS011;65257;52.104;4.268;2023-04-03T09:03:21;4.68;;;1.40;;
76423;SDS011;65257;52.104;4.268;2023-04-03T09:11:24;4.32;;;1.25;;
76423;SDS011;65257;52.104;4.268;2023-04-03T09:13:59;4.30;;;1.58;;
76423;SDS011;65257;52.104;4.268;2023-04-03T09:16:47;5.28;;;1.50;;
76423;SDS011;65257;52.104;4.268;2023-04-03T09:22:21;3.40;;;1.42;;
76423;SDS011;65257;52.104;4.268;2023-04-03T09:24:52;4.68;;;1.55;;
76423;SDS011;65257;52.104;4.268;2023-04-03T09:27:27;4.80;;;1.15;;
76423;SDS011;65257;52.104;4.268;2023-04-03T09:29:53;3.80;;;1.20;;
76423;SDS011;65257;52.104;4.268;2023-04-03T09:32:25;4.78;;;1.45;;
76423;SDS011;65257;52.104;4.268;2023-04-03T09:37:46;2.80;;;1.50;;
76423;SDS011;65257;52.104;4.268;2023-04-03T09:40:31;3.50;;;1.50;;
76423;SDS011;65257;52.104;4.268;2023-04-03T09:43:23;3.25;;;1.63;;
76423;SDS011;65257;52.104;4.268;2023-04-03T09:51:45;5.47;;;1.98;;
76423;SDS011;65257;52.104;4.268;2023-04-03T09:54:24;3.38;;;1.40;;
76423;SDS011;65257;52.104;4.268;2023-04-03T09:56:56;7.13;;;1.17;;
76423;SDS011;65257;52.104;4.268;2023-04-03T09:59:29;4.03;;;1.65;;
76423;SDS011;65257;52.104;4.268;2023-04-03T10:02:13;3.83;;;1.15;;
76423;SDS011;65257;52.104;4.268;2023-04-03T10:05:00;2.17;;;0.82;;
76423;SDS011;65257;52.104;4.268;2023-04-03T10:10:24;4.53;;;1.17;;
76423;SDS011;65257;52.104;4.268;2023-04-03T10:13:17;3.97;;;1.33;;
76423;SDS011;65257;52.104;4.268;2023-04-03T10:16:00;2.33;;;0.90;;
76423;SDS011;65257;52.104;4.268;2023-04-03T10:23:54;3.20;;;1.45;;
76423;SDS011;65257;52.104;4.268;2023-04-03T10:26:35;3.70;;;1.27;;
76423;SDS011;65257;52.104;4.268;2023-04-03T10:34:30;2.10;;;0.93;;
76423;SDS011;65257;52.104;4.268;2023-04-03T10:39:57;2.65;;;0.70;;
76423;SDS011;65257;52.104;4.268;2023-04-03T10:48:17;2.47;;;0.80;;
76423;SDS011;65257;52.104;4.268;2023-04-03T10:54:17;2.30;;;0.95;;
76423;SDS011;65257;52.104;4.268;2023-04-03T10:57:25;1.60;;;1.00;;
76423;SDS011;65257;52.104;4.268;2023-04-03T11:00:01;1.58;;;0.60;;
76423;SDS011;65257;52.104;4.268;2023-04-03T11:02:59;2.20;;;1.00;;
76423;SDS011;65257;52.104;4.268;2023-04-03T11:05:40;2.45;;;0.82;;
76423;SDS011;65257;52.104;4.268;2023-04-03T11:10:45;2.17;;;0.80;;
76423;SDS011;65257;52.104;4.268;2023-04-03T11:13:33;1.60;;;0.73;;
76423;SDS011;65257;52.104;4.268;2023-04-03T11:16:18;2.08;;;0.70;;
76423;SDS011;65257;52.104;4.268;2023-04-03T11:18:55;2.63;;;0.75;;
76423;SDS011;65257;52.104;4.268;2023-04-03T11:21:33;2.53;;;0.80;;
76423;SDS011;65257;52.104;4.268;2023-04-03T11:24:26;2.38;;;0.90;;
76423;SDS011;65257;52.104;4.268;2023-04-03T11:26:55;2.13;;;0.70;;
76423;SDS011;65257;52.104;4.268;2023-04-03T11:29:24;2.22;;;1.00;;
76423;SDS011;65257;52.104;4.268;2023-04-03T11:34:50;3.28;;;0.90;;
76423;SDS011;65257;52.104;4.268;2023-04-03T11:37:41;3.03;;;1.02;;
76423;SDS011;65257;52.104;4.268;2023-04-03T11:40:53;2.35;;;0.70;;
76423;SDS011;65257;52.104;4.268;2023-04-03T11:43:55;3.20;;;0.82;;
76423;SDS011;65257;52.104;4.268;2023-04-03T11:56:28;2.72;;;0.90;;
76423;SDS011;65257;52.104;4.268;2023-04-03T12:05:33;1.95;;;0.70;;
76423;SDS011;65257;52.104;4.268;2023-04-03T12:11:32;2.28;;;0.85;;
76423;SDS011;65257;52.104;4.268;2023-04-03T12:14:42;1.90;;;1.25;;
76423;SDS011;65257;52.104;4.268;2023-04-03T12:28:36;2.60;;;0.90;;
76423;SDS011;65257;52.104;4.268;2023-04-03T12:41:58;2.42;;;1.02;;
76423;SDS011;65257;52.104;4.268;2023-04-03T12:48:22;1.90;;;0.80;;
76423;SDS011;65257;52.104;4.268;2023-04-03T12:51:55;1.75;;;0.63;;
76423;SDS011;65257;52.104;4.268;2023-04-03T12:55:27;2.00;;;0.70;;
76423;SDS011;65257;52.104;4.268;2023-04-03T12:59:19;1.88;;;0.60;;
76423;SDS011;65257;52.104;4.268;2023-04-03T13:02:15;2.03;;;0.73;;
76423;SDS011;65257;52.104;4.268;2023-04-03T13:05:58;1.90;;;0.60;;
76423;SDS011;65257;52.104;4.268;2023-04-03T13:12:56;2.40;;;0.70;;
76423;SDS011;65257;52.104;4.268;2023-04-03T13:19:19;2.88;;;1.00;;
76423;SDS011;65257;52.104;4.268;2023-04-03T13:22:29;1.70;;;0.80;;
76423;SDS011;65257;52.104;4.268;2023-04-03T13:25:33;2.05;;;0.77;;
76423;SDS011;65257;52.104;4.268;2023-04-03T13:28:23;2.00;;;0.73;;
76423;SDS011;65257;52.104;4.268;2023-04-03T13:34:20;2.25;;;0.77;;
76423;SDS011;65257;52.104;4.268;2023-04-03T13:37:11;3.00;;;1.52;;
76423;SDS011;65257;52.104;4.268;2023-04-03T13:40:13;4.15;;;0.90;;
76423;SDS011;65257;52.104;4.268;2023-04-03T13:48:56;1.85;;;0.70;;
76423;SDS011;65257;52.104;4.268;2023-04-03T13:51:37;2.38;;;0.90;;
76423;SDS011;65257;52.104;4.268;2023-04-03T13:54:33;3.05;;;0.98;;
76423;SDS011;65257;52.104;4.268;2023-04-03T13:57:11;2.20;;;1.15;;
76423;SDS011;65257;52.104;4.268;2023-04-03T13:59:44;1.85;;;0.73;;
76423;SDS011;65257;52.104;4.268;2023-04-03T14:02:33;2.10;;;0.82;;
76423;SDS011;65257;52.104;4.268;2023-04-03T14:05:30;2.70;;;1.15;;
76423;SDS011;65257;52.104;4.268;2023-04-03T14:08:01;3.28;;;1.17;;
76423;SDS011;65257;52.104;4.268;2023-04-03T14:10:35;2.78;;;1.02;;
76423;SDS011;65257;52.104;4.268;2023-04-03T14:13:02;2.80;;;1.02;;
76423;SDS011;65257;52.104;4.268;2023-04-03T14:15:35;3.08;;;0.93;;
76423;SDS011;65257;52.104;4.268;2023-04-03T14:18:02;3.25;;;0.80;;
76423;SDS011;65257;52.104;4.268;2023-04-03T14:20:34;1.75;;;0.90;;
76423;SDS011;65257;52.104;4.268;2023-04-03T14:23:05;2.55;;;1.63;;
76423;SDS011;65257;52.104;4.268;2023-04-03T14:25:38;3.25;;;1.02;;
76423;SDS011;65257;52.104;4.268;2023-04-03T14:28:16;3.67;;;1.30;;
76423;SDS011;65257;52.104;4.268;2023-04-03T14:31:20;3.20;;;1.17;;
76423;SDS011;65257;52.104;4.268;2023-04-03T14:33:58;2.08;;;0.80;;
76423;SDS011;65257;52.104;4.268;2023-04-03T14:39:06;2.85;;;1.20;;
76423;SDS011;65257;52.104;4.268;2023-04-03T14:41:57;2.10;;;0.77;;
76423;SDS011;65257;52.104;4.268;2023-04-03T14:44:29;3.38;;;1.30;;
76423;SDS011;65257;52.104;4.268;2023-04-03T14:47:18;2.70;;;1.17;;
76423;SDS011;65257;52.104;4.268;2023-04-03T14:50:23;2.85;;;1.02;;
76423;SDS011;65257;52.104;4.268;2023-04-03T14:52:58;2.10;;;1.13;;
76423;SDS011;65257;52.104;4.268;2023-04-03T14:55:46;1.92;;;0.63;;
76423;SDS011;65257;52.104;4.268;2023-04-03T14:58:35;1.77;;;0.75;;
76423;SDS011;65257;52.104;4.268;2023-04-03T15:01:05;2.28;;;1.10;;
76423;SDS011;65257;52.104;4.268;2023-04-03T15:03:35;2.58;;;1.02;;
76423;SDS011;65257;52.104;4.268;2023-04-03T15:06:08;3.42;;;1.00;;
76423;SDS011;65257;52.104;4.268;2023-04-03T15:08:54;3.65;;;1.02;;
76423;SDS011;65257;52.104;4.268;2023-04-03T15:11:25;3.80;;;1.05;;
76423;SDS011;65257;52.104;4.268;2023-04-03T15:14:02;2.92;;;1.05;;
76423;SDS011;65257;52.104;4.268;2023-04-03T15:16:30;1.80;;;0.70;;
76423;SDS011;65257;52.104;4.268;2023-04-03T15:19:18;5.20;;;1.00;;
76423;SDS011;65257;52.104;4.268;2023-04-03T15:21:47;2.75;;;0.98;;
76423;SDS011;65257;52.104;4.268;2023-04-03T15:24:15;4.20;;;1.23;;
76423;SDS011;65257;52.104;4.268;2023-04-03T15:26:44;3.00;;;0.90;;
76423;SDS011;65257;52.104;4.268;2023-04-03T15:29:14;1.92;;;0.93;;
76423;SDS011;65257;52.104;4.268;2023-04-03T15:31:59;2.40;;;1.13;;
76423;SDS011;65257;52.104;4.268;2023-04-03T15:34:32;4.40;;;1.00;;
76423;SDS011;65257;52.104;4.268;2023-04-03T15:37:32;2.83;;;0.82;;
76423;SDS011;65257;52.104;4.268;2023-04-03T15:40:21;4.68;;;1.40;;
76423;SDS011;65257;52.104;4.268;2023-04-03T15:42:52;3.92;;;1.10;;
76423;SDS011;65257;52.104;4.268;2023-04-03T15:45:28;2.83;;;1.15;;
76423;SDS011;65257;52.104;4.268;2023-04-03T15:47:59;3.38;;;1.33;;
76423;SDS011;65257;52.104;4.268;2023-04-03T15:50:35;7.15;;;1.10;;
76423;SDS011;65257;52.104;4.268;2023-04-03T15:53:01;3.05;;;1.15;;
76423;SDS011;65257;52.104;4.268;2023-04-03T15:55:28;2.50;;;1.23;;
76423;SDS011;65257;52.104;4.268;2023-04-03T15:57:56;2.63;;;1.13;;
76423;SDS011;65257;52.104;4.268;2023-04-03T16:00:26;2.75;;;1.00;;
76423;SDS011;65257;52.104;4.268;2023-04-03T16:02:58;4.30;;;1.00;;
76423;SDS011;65257;52.104;4.268;2023-04-03T16:05:28;3.20;;;1.73;;
76423;SDS011;65257;52.104;4.268;2023-04-03T16:07:58;2.95;;;1.50;;
76423;SDS011;65257;52.104;4.268;2023-04-03T16:10:31;3.88;;;1.33;;
76423;SDS011;65257;52.104;4.268;2023-04-03T16:12:57;3.47;;;1.38;;
76423;SDS011;65257;52.104;4.268;2023-04-03T16:15:23;3.55;;;1.27;;
76423;SDS011;65257;52.104;4.268;2023-04-03T16:17:54;2.35;;;1.25;;
76423;SDS011;65257;52.104;4.268;2023-04-03T16:20:21;3.58;;;1.10;;
76423;SDS011;65257;52.104;4.268;2023-04-03T16:23:08;2.72;;;1.30;;
76423;SDS011;65257;52.104;4.268;2023-04-03T16:25:34;5.15;;;1.35;;
76423;SDS011;65257;52.104;4.268;2023-04-03T16:28:20;5.15;;;1.40;;
76423;SDS011;65257;52.104;4.268;2023-04-03T16:30:51;3.70;;;1.15;;
76423;SDS011;65257;52.104;4.268;2023-04-03T16:33:18;2.58;;;1.10;;
76423;SDS011;65257;52.104;4.268;2023-04-03T16:35:53;4.00;;;1.15;;
76423;SDS011;65257;52.104;4.268;2023-04-03T16:38:21;3.17;;;1.15;;
76423;SDS011;65257;52.104;4.268;2023-04-03T16:40:48;4.20;;;1.00;;
76423;SDS011;65257;52.104;4.268;2023-04-03T16:43:15;2.90;;;1.10;;
76423;SDS011;65257;52.104;4.268;2023-04-03T16:45:41;3.75;;;1.73;;
76423;SDS011;65257;52.104;4.268;2023-04-03T16:48:12;2.33;;;0.65;;
76423;SDS011;65257;52.104;4.268;2023-04-03T16:50:41;4.05;;;1.35;;
76423;SDS011;65257;52.104;4.268;2023-04-03T16:53:07;4.50;;;1.33;;
76423;SDS011;65257;52.104;4.268;2023-04-03T16:55:37;3.92;;;1.58;;
76423;SDS011;65257;52.104;4.268;2023-04-03T16:58:05;6.70;;;1.48;;
76423;SDS011;65257;52.104;4.268;2023-04-03T17:00:39;3.67;;;1.33;;
76423;SDS011;65257;52.104;4.268;2023-04-03T17:03:10;2.85;;;1.30;;
76423;SDS011;65257;52.104;4.268;2023-04-03T17:06:09;6.45;;;1.52;;
76423;SDS011;65257;52.104;4.268;2023-04-03T17:08:43;3.97;;;1.58;;
76423;SDS011;65257;52.104;4.268;2023-04-03T17:11:18;3.28;;;1.58;;
76423;SDS011;65257;52.104;4.268;2023-04-03T17:13:47;3.55;;;1.20;;
76423;SDS011;65257;52.104;4.268;2023-04-03T17:18:48;4.05;;;1.50;;
76423;SDS011;65257;52.104;4.268;2023-04-03T17:21:14;4.57;;;1.08;;
76423;SDS011;65257;52.104;4.268;2023-04-03T17:23:42;2.80;;;1.15;;
76423;SDS011;65257;52.104;4.268;2023-04-03T17:26:16;4.45;;;1.20;;
76423;SDS011;65257;52.104;4.268;2023-04-03T17:29:11;4.70;;;1.65;;
76423;SDS011;65257;52.104;4.268;2023-04-03T17:31:36;3.50;;;1.55;;
76423;SDS011;65257;52.104;4.268;2023-04-03T17:34:06;5.30;;;1.17;;
76423;SDS011;65257;52.104;4.268;2023-04-03T17:36:36;2.90;;;1.08;;